Terminal Aerodrome Forecast
Issued by NWS Tallahassee, FL

Home | Current Version | Previous Version | Text Only | Print | Product List | Glossary On
Versions: 1 2 3 4 5 6 7 8 9 10 11 12 13 14 15 16 17 18 19
000
FTUS42 KTAE 222320
TAFTLH
TAF
KTLH 222320Z 2300/2324 17010KT P6SM VCSH BKN005
      TEMPO 2300/2302 3SM SHRA BKN012
     FM230300 13005KT P6SM BKN005
     FM230500 17004KT 1SM BR OVC004
     FM231300 31008KT P6SM SCT015=

USA.gov is the U.S. government's official web portal to all federal, state and local government web resources and services.